Terminal Aerodrome Forecast
Issued by NWS Los Angeles, CA

Home | Current Version | Previous Version | Text Only | Print | Product List | Glossary On
Versions: 1 2 3 4 5 6 7 8 9 10 11 12
153
FTUS46 KLOX 221727
TAFSMX
TAF
KSMX 221727Z 2218/2318 VRB03KT P6SM SKC
     FM222100 31010KT P6SM SKC
     FM230400 VRB03KT P6SM SKC=

USA.gov is the U.S. government's official web portal to all federal, state and local government web resources and services.